Airfield :
LOGIN :

Register | Disclaimer

   EN    FR    IT 

 










Legend :    VFR   Marginal VFR   IFR   Intensive IFR   Very Intensive IFR
Visi :
Ceiling :
>= 8 km
>= 3000ft
5 to 8 km
1000 to 3000 ft
1500m to 5 km
500 to 1000 ft
800 to 1500m
200 to 500 ft
< 800m
< 200 ft
Symbols :   Thunderstorms  Fog  Heavy snow  Heavy precipitations  Wind > 20 kt
SIGMETs :     Misc.  Thunderstorms  Icing  Turbulence  Mountain Waves  Volcanic Ashes







- Airport Elevation : 844 ft
- IATA code : OSR


LKMT - Ostrava-Mosnov

CURRENT METAR :
  • 250930Z VRB03KT 9999 BKN030 16/09 Q1020 NOSIG

EXPIRED METARs :
  • 250900Z VRB02KT 9999 BKN030 16/10 Q1020 NOSIG
  • 250830Z VRB01KT 9999 SCT017 BKN043 15/10 Q1020 NOSIG
  • 250800Z 32003KT 280V350 9999 SCT016 BKN033 14/10 Q1020 NOSIG
  • 250730Z VRB02KT 9999 SCT015 BKN038 15/12 Q1020 NOSIG
  • 250700Z 02004KT 330V080 9999 SCT015 BKN036 14/10 Q1020 NOSIG

TAF TAF LKMT
Valid from the 25 at 06:00 until the 26 at 12:00 UTC


250500Z 2506/2612 VRB02KT 9999 BKN025
TEMPO 2506/2507 3000 RA BR BKN013
TEMPO 2507/2518 -SHRA
PROB30
TEMPO 2508/2517 25006KT SCT020TCU
TEMPO 2602/2607 3000 RA BR BKN012
BECMG 2607/2609 35008KT
TEMPO 2607/2612 -SHRA
PROB30
TEMPO 2608/2612 7000 SHRA SCT020TCU
No reported NOTAMs for that airfield.



MET'MAP, your aeronautical weather chart ! - Copyright ORBIFLY December 2007 - Disclaimer

ORBIFLY MET'MAP TEAM :

Programming & Development : Alexandra Zaïnal
Concept & Development : Baudouin d'Aumeries
Co-Development & Prog : Marc-Olivier Méhu
Technical & hardware support : Manuel Goepfert

Contact : metmap@orbifly.com




SOURCES & CREDITS :

   NOAA